createdAt,value
2023-03-22T00:01:22.686Z,68.82
2023-03-22T00:06:26.917Z,68.85
2023-03-22T00:11:30.569Z,68.99
2023-03-22T00:16:34.205Z,69.13
2023-03-22T00:21:37.830Z,69.16
2023-03-22T00:26:41.557Z,69.18
2023-03-22T00:31:45.227Z,69.28
2023-03-22T00:36:48.855Z,69.23
2023-03-22T00:41:52.194Z,69.24
2023-03-22T00:46:55.650Z,69.38
2023-03-22T00:51:59.204Z,69.38
2023-03-22T00:57:07.957Z,69.51
2023-03-22T01:02:15.177Z,69.61
2023-03-22T01:07:21.913Z,69.61
2023-03-22T01:12:25.519Z,70.02
2023-03-22T01:17:28.765Z,70.07
2023-03-22T01:22:32.205Z,70.12
2023-03-22T01:27:36.309Z,70.22
2023-03-22T01:32:40.236Z,70.17
2023-03-22T01:37:44.024Z,70.22
2023-03-22T01:42:48.080Z,70.24
2023-03-22T01:47:59.879Z,70.32
2023-03-22T01:53:05.335Z,70.37
2023-03-22T01:58:10.810Z,70.27
2023-03-22T02:03:56.033Z,70.10
2023-03-22T02:08:59.867Z,69.77
2023-03-22T02:14:29.525Z,69.70
2023-03-22T02:20:25.642Z,70.00
2023-03-22T02:25:32.912Z,70.04
2023-03-22T02:30:48.422Z,70.16
2023-03-22T02:36:12.937Z,70.00
2023-03-22T02:42:03.224Z,70.07
2023-03-22T02:47:17.338Z,69.87
2023-03-22T02:52:29.865Z,69.96
2023-03-22T02:57:45.649Z,69.49
2023-03-22T03:02:57.842Z,69.33
2023-03-22T03:08:02.916Z,69.33
2023-03-22T03:13:06.764Z,69.28
2023-03-22T03:18:26.744Z,69.30
2023-03-22T03:23:49.869Z,69.22
2023-03-22T03:28:58.396Z,69.24
2023-03-22T03:34:23.556Z,69.85
2023-03-22T03:39:30.750Z,70.20
2023-03-22T03:44:36.804Z,70.62
2023-03-22T03:49:41.018Z,71.06
2023-03-22T03:54:45.878Z,71.31
2023-03-22T03:59:52.237Z,71.81
2023-03-22T04:05:07.687Z,71.96
2023-03-22T04:10:11.016Z,72.18
2023-03-22T04:15:14.354Z,72.40
2023-03-22T04:20:19.862Z,72.54
2023-03-22T04:25:23.601Z,72.32
2023-03-22T04:30:45.921Z,72.16
2023-03-22T04:36:11.475Z,72.23
2023-03-22T04:41:26.542Z,72.43
2023-03-22T04:46:34.973Z,72.24
2023-03-22T04:51:40.008Z,72.27
2023-03-22T04:56:58.609Z,71.98
2023-03-22T05:02:04.186Z,71.68
2023-03-22T05:07:14.234Z,71.77
2023-03-22T05:12:27.877Z,71.57
2023-03-22T05:17:38.642Z,71.45
2023-03-22T05:22:42.124Z,71.47
2023-03-22T05:27:47.078Z,71.48
2023-03-22T05:33:11.090Z,71.68
2023-03-22T05:38:19.381Z,71.91
2023-03-22T05:43:26.775Z,72.01
2023-03-22T05:48:30.783Z,72.21
2023-03-22T05:53:35.072Z,72.34
2023-03-22T05:59:02.971Z,72.89
2023-03-22T06:04:07.018Z,72.32
2023-03-22T06:09:20.449Z,72.28
2023-03-22T06:14:26.637Z,72.22
2023-03-22T06:19:54.613Z,72.07
2023-03-22T06:24:58.058Z,72.38
2023-03-22T06:30:09.222Z,72.20
2023-03-22T06:35:23.602Z,71.77
2023-03-22T06:40:28.313Z,72.11
2023-03-22T06:45:33.698Z,71.77
2023-03-22T06:50:40.368Z,71.44
2023-03-22T06:55:55.649Z,71.56
2023-03-22T07:01:00.887Z,71.41
2023-03-22T07:06:07.193Z,71.45
2023-03-22T07:11:12.585Z,71.18
2023-03-22T07:16:19.856Z,71.16
2023-03-22T07:21:36.375Z,71.15
2023-03-22T07:26:42.424Z,71.04
2023-03-22T07:31:46.905Z,70.97
2023-03-22T07:37:00.179Z,71.15
2023-03-22T07:42:04.384Z,71.08
2023-03-22T07:47:39.881Z,71.18
2023-03-22T07:53:12.033Z,70.69
2023-03-22T07:58:15.389Z,70.88
2023-03-22T08:03:19.388Z,70.81
2023-03-22T08:08:37.229Z,70.36
2023-03-22T08:13:41.343Z,69.72
2023-03-22T08:18:46.055Z,68.94
2023-03-22T08:23:50.017Z,68.28
2023-03-22T08:29:31.607Z,67.89
2023-03-22T08:34:40.157Z,67.74
2023-03-22T08:39:44.225Z,67.54
2023-03-22T08:45:01.905Z,66.29
2023-03-22T08:50:07.258Z,65.56
2023-03-22T08:55:17.880Z,64.87
2023-03-22T09:00:48.660Z,63.47
2023-03-22T09:06:02.314Z,62.65
2023-03-22T09:11:12.580Z,61.90
2023-03-22T09:16:17.155Z,61.05
2023-03-22T09:21:22.234Z,60.21
2023-03-22T09:26:37.302Z,59.89
2023-03-22T09:31:42.184Z,60.10
2023-03-22T09:36:53.066Z,59.65
2023-03-22T09:42:03.513Z,59.31
2023-03-22T09:47:14.009Z,58.26
2023-03-22T09:52:18.246Z,57.88
2023-03-22T09:57:37.745Z,58.04
2023-03-22T10:03:05.697Z,58.64
2023-03-22T10:08:22.526Z,58.05
2023-03-22T10:14:00.465Z,57.09
2023-03-22T10:19:45.255Z,56.99
2023-03-22T10:24:51.406Z,55.86
2023-03-22T10:30:10.721Z,55.57
2023-03-22T10:35:15.741Z,54.80
2023-03-22T10:40:25.092Z,54.66
2023-03-22T10:45:28.855Z,55.01
2023-03-22T10:50:36.877Z,55.07
2023-03-22T10:55:42.032Z,55.27
2023-03-22T11:00:48.676Z,55.31
2023-03-22T11:06:19.704Z,54.38
2023-03-22T11:11:25.064Z,54.59
2023-03-22T11:16:31.230Z,53.80
2023-03-22T11:21:35.253Z,52.88
2023-03-22T11:26:41.334Z,51.37
2023-03-22T11:31:55.632Z,50.95
2023-03-22T11:37:02.418Z,49.95
2023-03-22T11:42:06.937Z,49.93
2023-03-22T11:47:14.152Z,49.28
2023-03-22T11:52:27.928Z,48.82
2023-03-22T11:57:34.923Z,49.73
2023-03-22T12:02:48.872Z,48.44
2023-03-22T12:08:02.567Z,47.73
2023-03-22T12:13:15.959Z,47.56
2023-03-22T12:18:28.306Z,47.44
2023-03-22T12:23:35.517Z,47.39
2023-03-22T12:28:49.824Z,46.98
2023-03-22T12:33:56.672Z,46.08
2023-03-22T12:39:02.732Z,46.07
2023-03-22T12:44:18.816Z,45.27
2023-03-22T12:49:32.634Z,45.13
2023-03-22T12:54:38.040Z,44.75
2023-03-22T12:59:45.584Z,44.32
2023-03-22T13:05:05.343Z,43.50
2023-03-22T13:10:31.381Z,43.15
2023-03-22T13:15:42.308Z,42.90
2023-03-22T13:21:11.795Z,43.48
2023-03-22T13:26:16.482Z,43.34
2023-03-22T13:31:37.994Z,42.80
2023-03-22T13:36:50.395Z,41.53
2023-03-22T13:42:09.017Z,40.57
2023-03-22T13:47:46.708Z,40.39
2023-03-22T13:53:22.497Z,38.91
2023-03-22T13:58:36.681Z,37.91
2023-03-22T14:03:43.061Z,37.91
2023-03-22T14:08:50.065Z,38.15
2023-03-22T14:14:16.096Z,38.07
2023-03-22T14:19:23.743Z,38.50
